Time;durP1;ratioP1;P1;durP2;ratioP2;P2;SDS_P1;SDS_P2;PMS_P1;PMS_P2;Temp;Humidity;BMP_temperature;BMP_pressure;BME280_temperature;BME280_humidity;BME280_pressure;Samples;Min_cycle;Max_cycle;Signal;HPM_P1;HPM_P2
2021/11/24 00:00:44;;;;;;;;;41.00;32.00;;;;;6.71;73.50;102358.81;4932131;28;45543;-52
2021/11/24 00:03:10;;;;;;;;;39.75;33.75;;;;;6.72;73.95;102353.56;4932279;28;45537;-52
2021/11/24 00:05:35;;;;;;;;;34.50;28.75;;;;;6.68;73.96;102358.88;4928901;28;45363;-54
2021/11/24 00:08:01;;;;;;;;;34.25;27.50;;;;;6.67;73.62;102355.41;4931165;28;45519;-51
2021/11/24 00:10:31;;;;;;;;;53.00;37.50;;;;;6.68;73.75;102356.25;4929158;28;45442;-50
2021/11/24 00:12:57;;;;;;;;;36.50;31.75;;;;;6.68;73.53;102351.88;4930392;28;45387;-52
2021/11/24 00:15:22;;;;;;;;;41.00;30.75;;;;;6.69;73.83;102342.28;4932110;28;45436;-50
2021/11/24 00:17:49;;;;;;;;;38.75;32.25;;;;;6.65;73.33;102338.84;4931937;28;45970;-52
2021/11/24 00:20:14;;;;;;;;;32.25;29.25;;;;;6.63;73.80;102335.38;4934454;28;45240;-54
2021/11/24 00:22:40;;;;;;;;;32.25;29.25;;;;;6.61;73.92;102334.56;4934314;28;45245;-53
2021/11/24 00:25:06;;;;;;;;;41.25;32.25;;;;;6.60;73.77;102332.81;4932912;28;45394;-52
2021/11/24 00:27:32;;;;;;;;;41.00;32.00;;;;;6.62;73.91;102335.41;4932710;28;45683;-52
2021/11/24 00:29:57;;;;;;;;;35.50;30.00;;;;;6.60;74.18;102334.59;4931678;28;45342;-49
2021/11/24 00:32:23;;;;;;;;;40.00;28.25;;;;;6.62;73.91;102341.50;4933242;28;45295;-51
2021/11/24 00:34:49;;;;;;;;;33.00;26.25;;;;;6.62;74.19;102341.50;4933385;28;45366;-53
2021/11/24 00:37:14;;;;;;;;;28.00;25.00;;;;;6.61;74.24;102337.16;4933100;28;45310;-50
2021/11/24 00:39:40;;;;;;;;;29.25;21.00;;;;;6.60;73.87;102337.19;4914934;28;45344;-53
2021/11/24 00:42:06;;;;;;;;;32.25;24.50;;;;;6.59;74.45;102330.25;4933695;28;45741;-53
2021/11/24 00:44:31;;;;;;;;;37.00;31.00;;;;;6.59;74.33;102328.47;4933549;28;45486;-53
2021/11/24 00:46:57;;;;;;;;;32.50;24.75;;;;;6.60;74.54;102329.34;4935554;28;46143;-53
2021/11/24 00:49:22;;;;;;;;;27.00;23.00;;;;;6.58;73.86;102336.38;4924121;28;45230;-51
2021/11/24 00:51:48;;;;;;;;;34.50;28.50;;;;;6.56;73.60;102328.56;4924254;28;45219;-53
2021/11/24 00:54:13;;;;;;;;;25.25;21.25;;;;;6.57;73.71;102332.03;4923753;28;45225;-54
2021/11/24 00:56:39;;;;;;;;;33.25;26.00;;;;;6.55;74.11;102326.78;4924037;28;45168;-52
2021/11/24 00:59:05;;;;;;;;;32.25;23.75;;;;;6.54;73.92;102319.84;4923619;28;45236;-50
2021/11/24 01:01:31;;;;;;;;;34.25;25.75;;;;;6.55;74.28;102320.69;4924175;28;45314;-54
2021/11/24 01:03:57;;;;;;;;;32.50;28.25;;;;;6.55;73.74;102321.56;4924028;28;45481;-51
2021/11/24 01:06:23;;;;;;;;;30.25;23.00;;;;;6.54;74.08;102324.22;4923945;28;46038;-54
2021/11/24 01:08:49;;;;;;;;;31.75;27.75;;;;;6.52;73.52;102313.75;4923759;28;45402;-53
2021/11/24 01:11:14;;;;;;;;;30.75;24.00;;;;;6.50;74.01;102306.84;4924054;28;45292;-54
2021/11/24 01:13:40;;;;;;;;;28.75;22.00;;;;;6.51;73.53;102303.31;4923542;28;45326;-55
2021/11/24 01:16:07;;;;;;;;;33.25;23.25;;;;;6.51;74.08;102305.94;4923670;28;45379;-52
2021/11/24 01:18:32;;;;;;;;;34.75;26.50;;;;;6.51;74.22;102309.44;4923587;28;45309;-52
2021/11/24 01:20:58;;;;;;;;;21.75;18.75;;;;;6.49;73.69;102300.75;4913304;28;45238;-54
2021/11/24 01:23:24;;;;;;;;;38.00;27.00;;;;;6.49;74.04;102300.75;4923663;28;45265;-52
2021/11/24 01:25:49;;;;;;;;;28.25;24.50;;;;;6.48;74.35;102292.88;4923580;28;45198;-54
2021/11/24 01:28:15;;;;;;;;;38.50;26.50;;;;;6.47;73.89;102288.56;4923526;28;45222;-52
2021/11/24 01:30:41;;;;;;;;;3.25;2.50;;;;;6.44;74.06;102294.72;4923408;28;45243;-54
2021/11/24 01:33:06;;;;;;;;;24.25;22.25;;;;;6.43;74.65;102293.84;4923712;28;45471;-54
2021/11/24 01:35:32;;;;;;;;;32.25;23.50;;;;;6.42;73.98;102288.66;4923289;28;46204;-51
2021/11/24 01:37:58;;;;;;;;;29.00;27.50;;;;;6.41;74.06;102284.31;4923440;28;45348;-51
2021/11/24 01:40:23;;;;;;;;;29.75;24.25;;;;;6.40;74.83;102280.81;4923418;28;45339;-51
2021/11/24 01:42:49;;;;;;;;;34.75;29.00;;;;;6.42;73.89;102280.78;4923673;28;45317;-54
2021/11/24 01:45:17;;;;;;;;;27.50;23.00;;;;;6.41;74.38;102273.84;4922913;28;45886;-52
2021/11/24 01:47:44;;;;;;;;;32.00;26.00;;;;;6.37;74.09;102280.00;4906157;28;45359;-51
2021/11/24 01:50:10;;;;;;;;;35.25;25.25;;;;;6.34;74.46;102274.84;4923321;28;45336;-50
2021/11/24 01:52:36;;;;;;;;;30.75;26.75;;;;;6.31;75.04;102280.09;4923443;28;45230;-50
2021/11/24 01:55:04;;;;;;;;;27.50;25.25;;;;;6.29;75.02;102284.50;4922798;28;45334;-53
2021/11/24 01:57:30;;;;;;;;;32.50;25.75;;;;;6.26;74.71;102272.34;4923109;28;45425;-52
2021/11/24 01:59:58;;;;;;;;;31.50;27.25;;;;;6.22;74.41;102272.41;4922862;28;45339;-52
2021/11/24 02:02:24;;;;;;;;;35.25;29.50;;;;;6.21;74.73;102263.69;4926516;28;45530;-53
2021/11/24 02:04:50;;;;;;;;;40.00;34.50;;;;;6.18;74.52;102263.75;4926527;28;46007;-54
2021/11/24 02:07:15;;;;;;;;;26.25;25.25;;;;;6.19;75.56;102259.38;4927070;28;45252;-54
2021/11/24 02:09:45;;;;;;;;;42.25;27.50;;;;;6.17;74.79;102255.94;4926618;28;45140;-50
2021/11/24 02:12:13;;;;;;;;;35.25;25.25;;;;;6.15;74.81;102254.19;4926574;28;45356;-51
2021/11/24 02:14:41;;;;;;;;;32.25;27.00;;;;;6.15;75.15;102253.31;4926175;28;45426;-53
2021/11/24 02:17:07;;;;;;;;;33.75;29.00;;;;;6.15;74.94;102254.19;4926302;28;45325;-51
2021/11/24 02:19:34;;;;;;;;;42.25;30.50;;;;;6.13;75.82;102255.97;4920955;28;45360;-50
2021/11/24 02:22:00;;;;;;;;;33.00;26.00;;;;;6.11;75.12;102249.03;4921732;28;45321;-51
2021/11/24 02:24:29;;;;;;;;;35.75;27.25;;;;;6.11;75.44;102252.53;4926094;28;45371;-51
2021/11/24 02:26:55;;;;;;;;;39.75;26.00;;;;;6.13;74.81;102255.09;4926125;28;45440;-53
2021/11/24 02:29:20;;;;;;;;;37.25;29.75;;;;;6.14;75.23;102249.84;4926170;28;45280;-54
2021/11/24 02:31:48;;;;;;;;;33.00;27.25;;;;;6.13;75.26;102245.50;4926132;28;45348;-50
2021/11/24 02:34:13;;;;;;;;;30.75;29.00;;;;;6.12;74.80;102238.56;4926042;28;45379;-49
2021/11/24 02:36:39;;;;;;;;;40.75;33.00;;;;;6.15;74.95;102241.09;4925971;28;45456;-49
2021/11/24 02:39:05;;;;;;;;;27.75;24.50;;;;;6.12;75.32;102240.31;4931481;28;45341;-51
2021/11/24 02:41:31;;;;;;;;;30.50;28.75;;;;;6.10;75.04;102236.84;4930141;28;45307;-50
2021/11/24 02:44:12;;;;;;;;;24.50;22.75;;;;;6.10;75.01;102242.09;4925591;28;45456;-51
2021/11/24 02:46:38;;;;;;;;;35.00;30.50;;;;;6.08;74.50;102233.38;4925874;28;45327;-52
2021/11/24 02:49:03;;;;;;;;;44.25;27.75;;;;;6.05;74.69;102231.69;4926156;28;45368;-49
2021/11/24 02:51:29;;;;;;;;;40.25;27.25;;;;;6.06;74.82;102229.94;4925854;28;45593;-53
2021/11/24 02:53:54;;;;;;;;;37.00;26.25;;;;;6.03;75.47;102228.25;4925359;28;46056;-53
2021/11/24 02:56:20;;;;;;;;;32.00;25.50;;;;;6.05;74.68;102220.38;4925672;28;45459;-54
2021/11/24 02:58:45;;;;;;;;;33.50;25.75;;;;;6.06;75.31;102216.84;4925631;28;45374;-51
2021/11/24 03:01:12;;;;;;;;;31.50;24.50;;;;;6.08;74.47;102217.69;4925705;28;45451;-53
2021/11/24 03:03:37;;;;;;;;;29.25;27.75;;;;;6.08;74.71;102212.44;4925670;28;45664;-53
2021/11/24 03:06:03;;;;;;;;;38.25;27.00;;;;;6.08;75.15;102215.06;4925489;28;45423;-52
2021/11/24 03:08:28;;;;;;;;;37.75;32.00;;;;;6.05;74.59;102209.91;4925714;28;45292;-54
2021/11/24 03:10:54;;;;;;;;;35.75;28.00;;;;;6.01;74.60;102198.66;4925612;28;45565;-50
2021/11/24 03:13:19;;;;;;;;;33.00;26.75;;;;;6.01;74.84;102209.09;4924064;28;45432;-55
2021/11/24 03:15:45;;;;;;;;;39.00;28.00;;;;;5.96;75.26;102195.22;4925369;28;45238;-53
2021/11/24 03:18:10;;;;;;;;;36.75;31.25;;;;;5.97;74.80;102188.25;4925684;28;45423;-54
2021/11/24 03:20:36;;;;;;;;;33.75;30.75;;;;;5.95;74.48;102190.88;4915419;28;45275;-55
2021/11/24 03:23:02;;;;;;;;;40.50;30.75;;;;;5.91;75.29;102181.34;4925326;28;45299;-52
2021/11/24 03:25:27;;;;;;;;;31.75;27.25;;;;;5.92;74.85;102190.94;4925172;28;45320;-50
2021/11/24 03:27:52;;;;;;;;;32.75;25.00;;;;;5.91;75.25;102183.09;4925545;28;45272;-52
2021/11/24 03:30:25;;;;;;;;;34.75;28.50;;;;;5.86;75.03;102170.09;4925159;28;45368;-52
2021/11/24 03:32:52;;;;;;;;;27.00;22.75;;;;;5.86;75.29;102173.56;4925330;28;45293;-51
2021/11/24 03:35:18;;;;;;;;;32.00;31.00;;;;;5.87;74.18;102179.66;4923838;28;45340;-54
2021/11/24 03:37:44;;;;;;;;;44.75;30.00;;;;;5.86;75.46;102184.03;4925179;28;45447;-53
2021/11/24 03:40:12;;;;;;;;;29.25;24.00;;;;;5.85;75.13;102186.69;4925025;28;45400;-55
2021/11/24 03:42:41;;;;;;;;;39.00;28.75;;;;;5.84;75.51;102179.69;4925115;28;45278;-54
2021/11/24 03:45:07;;;;;;;;;25.75;23.00;;;;;5.84;75.67;102182.31;4924745;28;45209;-53
2021/11/24 03:47:33;;;;;;;;;35.25;30.25;;;;;5.82;75.54;102182.34;4925279;28;45315;-53
2021/11/24 03:49:58;;;;;;;;;34.25;26.00;;;;;5.82;74.66;102171.88;4924971;28;45341;-55
2021/11/24 03:52:24;;;;;;;;;38.00;28.25;;;;;5.79;74.74;102174.56;4924897;28;45557;-53
2021/11/24 03:54:49;;;;;;;;;30.25;29.00;;;;;5.75;75.26;102174.63;4924533;28;45332;-51
2021/11/24 03:57:15;;;;;;;;;38.25;29.75;;;;;5.73;74.95;102171.19;4924962;28;45446;-55
2021/11/24 03:59:41;;;;;;;;;36.00;25.00;;;;;5.72;75.36;102161.59;4924664;28;45333;-52
2021/11/24 04:02:06;;;;;;;;;33.00;28.50;;;;;5.73;75.09;102155.50;4924667;28;45384;-49
2021/11/24 04:04:32;;;;;;;;;28.25;20.00;;;;;5.72;74.97;102148.53;4924500;28;45301;-50
2021/11/24 04:06:58;;;;;;;;;25.00;22.75;;;;;5.70;74.88;102145.97;4924955;28;45243;-52
2021/11/24 04:09:24;;;;;;;;;30.25;24.25;;;;;5.73;75.43;102147.66;4924650;28;45269;-53
2021/11/24 04:11:49;;;;;;;;;31.75;23.50;;;;;5.72;75.63;102145.94;4924460;28;46204;-54
2021/11/24 04:14:15;;;;;;;;;34.75;30.75;;;;;5.69;74.91;102152.06;4924398;28;45428;-54
2021/11/24 04:16:40;;;;;;;;;36.25;30.00;;;;;5.70;74.91;102148.56;4924815;28;45280;-53
2021/11/24 04:19:06;;;;;;;;;26.00;23.25;;;;;5.72;75.45;102148.53;4921496;28;45272;-51
2021/11/24 04:21:32;;;;;;;;;41.00;28.75;;;;;5.72;75.12;102143.31;4916399;28;46098;-53
2021/11/24 04:23:58;;;;;;;;;33.00;27.25;;;;;5.72;74.64;102144.16;4923782;28;45402;-53
2021/11/24 04:26:24;;;;;;;;;40.25;31.75;;;;;5.67;75.36;102139.91;4924661;28;45407;-54
2021/11/24 04:28:49;;;;;;;;;29.75;25.50;;;;;5.66;74.99;102138.19;4924275;28;45463;-53
2021/11/24 04:31:15;;;;;;;;;29.00;23.00;;;;;5.64;74.67;102134.72;4924423;28;45676;-55
2021/11/24 04:33:40;;;;;;;;;34.00;26.75;;;;;5.63;75.78;102131.25;4924359;28;45324;-53
2021/11/24 04:36:07;;;;;;;;;28.50;25.00;;;;;5.62;74.29;102129.53;4924547;28;45310;-51
2021/11/24 04:38:33;;;;;;;;;27.50;25.25;;;;;5.60;74.48;102123.44;4923998;28;45213;-52
2021/11/24 04:40:58;;;;;;;;;37.25;25.50;;;;;5.59;74.81;102121.72;4922846;28;47091;-51
2021/11/24 04:43:29;;;;;;;;;26.50;23.75;;;;;5.60;74.61;102118.22;4923804;28;45493;-52
2021/11/24 04:45:55;;;;;;;;;36.25;25.50;;;;;5.56;75.17;102117.41;4924301;28;45337;-51
2021/11/24 04:48:20;;;;;;;;;42.00;29.25;;;;;5.58;74.94;102117.38;4924044;28;45606;-49
2021/11/24 04:50:46;;;;;;;;;32.25;25.00;;;;;5.57;75.43;102118.28;4924100;28;45504;-50
2021/11/24 04:53:12;;;;;;;;;38.00;23.25;;;;;5.58;75.17;102120.88;4923864;28;45948;-50
2021/11/24 04:55:39;;;;;;;;;29.50;24.50;;;;;5.60;74.23;102123.44;4923960;28;45312;-52
2021/11/24 04:58:04;;;;;;;;;34.50;26.75;;;;;5.57;75.13;102126.97;4923882;28;45241;-51
2021/11/24 05:00:30;;;;;;;;;45.75;25.75;;;;;5.54;75.41;102123.56;4923769;28;45310;-53
2021/11/24 05:02:56;;;;;;;;;32.75;25.50;;;;;5.51;74.92;102111.41;4923711;28;45226;-54
2021/11/24 05:05:26;;;;;;;;;41.25;29.00;;;;;5.50;75.68;102117.50;4924021;28;45156;-50
2021/11/24 05:07:51;;;;;;;;;35.75;26.75;;;;;5.49;75.38;102113.19;4923865;28;45527;-53
2021/11/24 05:10:17;;;;;;;;;35.75;25.00;;;;;5.45;75.74;102108.91;4923700;28;45911;-53
2021/11/24 05:12:43;;;;;;;;;34.75;27.75;;;;;5.42;75.50;102105.47;4923602;28;45362;-54
2021/11/24 05:15:13;;;;;;;;;34.75;30.00;;;;;5.43;74.56;102105.44;4923565;28;45245;-53
2021/11/24 05:17:41;;;;;;;;;43.25;30.50;;;;;5.44;75.58;102108.91;4923590;28;45331;-51
2021/11/24 05:20:08;;;;;;;;;28.75;27.25;;;;;5.46;75.40;102108.00;4913435;28;46068;-52
2021/11/24 05:22:33;;;;;;;;;38.00;26.25;;;;;5.47;75.40;102104.50;4923611;28;45216;-53
2021/11/24 05:24:59;;;;;;;;;31.75;29.25;;;;;5.50;75.33;102107.06;4923640;28;45466;-54
2021/11/24 05:27:24;;;;;;;;;32.50;28.25;;;;;5.54;74.50;102107.88;4923671;28;45409;-50
2021/11/24 05:29:49;;;;;;;;;44.50;29.75;;;;;5.57;75.25;102100.84;4923282;28;45994;-52
2021/11/24 05:32:15;;;;;;;;;32.75;24.75;;;;;5.60;75.07;102102.53;4925527;28;45209;-54
2021/11/24 05:34:41;;;;;;;;;40.00;28.50;;;;;5.59;74.17;102104.28;4922855;28;45251;-52
2021/11/24 05:37:09;;;;;;;;;30.75;29.00;;;;;5.51;75.29;102106.16;4906552;28;45512;-53
2021/11/24 05:39:36;;;;;;;;;35.50;30.00;;;;;5.51;75.30;102094.84;4918744;28;46169;-54
2021/11/24 05:42:03;;;;;;;;;32.00;24.25;;;;;5.51;75.17;102093.09;4905116;28;45501;-51
2021/11/24 05:44:32;;;;;;;;;32.00;24.25;;;;;5.50;75.59;102090.50;4917785;28;45457;-53
2021/11/24 05:47:07;;;;;;;;;24.50;20.50;;;;;5.50;74.58;102094.00;4923154;28;45463;-52
2021/11/24 05:49:34;;;;;;;;;29.50;24.75;;;;;5.50;75.02;102094.00;4915759;28;45320;-56
2021/11/24 05:52:00;;;;;;;;;36.75;25.75;;;;;5.49;74.46;102092.28;4922988;28;45426;-56
2021/11/24 05:54:26;;;;;;;;;29.25;20.50;;;;;5.46;74.74;102091.47;4922991;28;45335;-56
2021/11/24 05:56:52;;;;;;;;;24.25;22.25;;;;;5.44;74.68;102081.03;4923179;28;45402;-58
2021/11/24 05:59:18;;;;;;;;;32.75;23.25;;;;;5.46;74.38;102084.50;4922842;28;46024;-57
2021/11/24 06:01:44;;;;;;;;;28.75;22.50;;;;;5.46;74.81;102078.41;4922968;28;45319;-57
2021/11/24 06:04:09;;;;;;;;;30.75;26.25;;;;;5.47;74.34;102082.75;4921701;28;45209;-58
2021/11/24 06:06:36;;;;;;;;;31.25;27.00;;;;;5.48;74.39;102074.00;4923177;28;45188;-57
2021/11/24 06:09:03;;;;;;;;;27.00;24.00;;;;;5.49;75.08;102080.97;4922306;28;46646;-57
2021/11/24 06:11:29;;;;;;;;;38.00;28.00;;;;;5.53;74.74;102085.22;4922864;28;45352;-58
2021/11/24 06:13:54;;;;;;;;;39.50;34.25;;;;;5.56;75.18;102074.75;4922588;28;45292;-57
2021/11/24 06:16:21;;;;;;;;;35.25;27.50;;;;;5.58;74.87;102068.59;4923111;28;45409;-58
2021/11/24 06:18:46;;;;;;;;;29.75;22.25;;;;;5.60;74.08;102068.56;4922564;28;46217;-57
2021/11/24 06:21:12;;;;;;;;;27.75;24.75;;;;;5.63;74.18;102070.28;4920930;28;45374;-57
2021/11/24 06:23:39;;;;;;;;;35.50;25.25;;;;;5.63;73.99;102073.75;4922896;28;45311;-57
2021/11/24 06:26:08;;;;;;;;;41.50;25.00;;;;;5.53;73.47;102070.44;4922987;28;45427;-57
2021/11/24 06:28:34;;;;;;;;;29.25;24.50;;;;;5.50;74.39;102074.84;4922539;28;46220;-57
2021/11/24 06:31:01;;;;;;;;;30.75;25.25;;;;;5.48;74.20;102064.41;4922908;28;45475;-58
2021/11/24 06:33:27;;;;;;;;;28.25;19.25;;;;;5.44;74.35;102067.09;4913830;28;45378;-57
2021/11/24 06:35:53;;;;;;;;;32.00;21.75;;;;;5.42;73.83;102072.34;4922906;28;45459;-57
2021/11/24 06:38:20;;;;;;;;;36.00;28.25;;;;;5.39;73.56;102066.31;4922416;28;45272;-59
2021/11/24 06:40:46;;;;;;;;;29.75;21.75;;;;;5.31;73.50;102061.22;4919912;28;45173;-59
2021/11/24 06:43:11;;;;;;;;;30.00;24.00;;;;;5.27;74.27;102054.31;4922347;28;45277;-57
2021/11/24 06:45:38;;;;;;;;;25.50;20.25;;;;;5.27;74.36;102062.16;4921688;28;45419;-58
2021/11/24 06:48:04;;;;;;;;;27.25;25.25;;;;;5.27;73.88;102064.75;4919904;28;46387;-57
2021/11/24 06:50:29;;;;;;;;;27.25;23.00;;;;;5.24;74.08;102068.28;4925045;28;45397;-57
2021/11/24 06:52:55;;;;;;;;;32.25;25.00;;;;;5.19;73.46;102064.00;4926148;28;45291;-58
2021/11/24 06:55:20;;;;;;;;;24.50;22.25;;;;;5.12;73.89;102063.25;4925546;28;46802;-58
2021/11/24 06:57:46;;;;;;;;;26.25;21.25;;;;;5.09;74.54;102062.44;4925529;28;46030;-58
2021/11/24 07:00:12;;;;;;;;;26.00;22.00;;;;;5.08;74.18;102060.72;4925297;28;45352;-58
2021/11/24 07:02:38;;;;;;;;;27.75;23.75;;;;;5.07;74.78;102069.44;4925671;28;45520;-58
2021/11/24 07:05:05;;;;;;;;;30.00;22.00;;;;;5.07;74.54;102059.00;4925539;28;45306;-58
2021/11/24 07:07:30;;;;;;;;;21.50;19.50;;;;;5.05;73.92;102059.00;4925402;28;45336;-56
2021/11/24 07:09:56;;;;;;;;;27.75;24.00;;;;;5.03;74.55;102051.19;4925150;28;45359;-57
2021/11/24 07:12:24;;;;;;;;;34.50;28.50;;;;;5.03;74.14;102052.94;4931127;28;45497;-58
2021/11/24 07:14:51;;;;;;;;;24.50;19.00;;;;;4.99;74.62;102043.44;4925127;28;45339;-58
2021/11/24 07:17:17;;;;;;;;;28.00;24.50;;;;;4.99;74.90;102040.84;4929677;28;46085;-58
2021/11/24 07:19:42;;;;;;;;;28.75;20.50;;;;;4.98;74.26;102050.41;4925227;28;45371;-58
2021/11/24 07:22:07;;;;;;;;;23.75;16.00;;;;;4.96;73.86;102046.09;4928737;28;45181;-59
2021/11/24 07:24:33;;;;;;;;;32.00;22.50;;;;;4.95;74.20;102058.28;4925172;28;45586;-58
2021/11/24 07:26:59;;;;;;;;;25.75;17.00;;;;;4.94;74.86;102045.25;4937859;28;45872;-57
2021/11/24 07:29:24;;;;;;;;;20.00;17.75;;;;;4.93;75.10;102047.00;4930405;28;45188;-58
2021/11/24 07:31:50;;;;;;;;;25.00;18.25;;;;;4.96;74.01;102046.09;4934031;28;45351;-57
2021/11/24 07:34:16;;;;;;;;;20.25;15.25;;;;;5.00;74.64;102051.25;4934305;28;45401;-58
2021/11/24 07:36:41;;;;;;;;;22.50;18.50;;;;;5.03;74.54;102051.19;4934968;28;46048;-57
2021/11/24 07:39:07;;;;;;;;;25.75;19.50;;;;;5.08;73.56;102056.34;4932456;28;45475;-57
2021/11/24 07:41:32;;;;;;;;;25.00;15.25;;;;;5.10;74.37;102057.19;4934493;28;45591;-58
2021/11/24 07:43:58;;;;;;;;;21.75;17.75;;;;;5.02;73.86;102049.47;4934163;28;45475;-58
2021/11/24 07:46:23;;;;;;;;;24.00;18.75;;;;;5.01;74.57;102041.66;4933974;28;45377;-59
2021/11/24 07:48:49;;;;;;;;;20.50;20.50;;;;;5.06;74.12;102047.69;4933073;28;45344;-58
2021/11/24 07:51:17;;;;;;;;;25.50;17.75;;;;;5.10;74.30;102040.66;4932693;28;46549;-58
2021/11/24 07:53:46;;;;;;;;;23.25;17.00;;;;;5.16;73.70;102040.56;4934583;28;45582;-59
2021/11/24 07:56:12;;;;;;;;;19.25;18.75;;;;;5.11;73.98;102045.84;4926208;28;45469;-57
2021/11/24 07:58:40;;;;;;;;;28.00;18.75;;;;;5.09;74.48;102044.16;4920412;28;45537;-58
2021/11/24 08:01:07;;;;;;;;;30.00;21.00;;;;;5.05;74.39;102045.94;4923541;28;45332;-58
2021/11/24 08:03:32;;;;;;;;;25.50;18.25;;;;;5.07;74.15;102046.81;4923244;28;45463;-59
2021/11/24 08:05:58;;;;;;;;;21.25;17.00;;;;;5.10;73.93;102041.53;4918684;28;46047;-58
2021/11/24 08:08:23;;;;;;;;;27.00;19.75;;;;;5.16;74.32;102045.78;4924162;28;45455;-59
2021/11/24 08:10:49;;;;;;;;;19.00;16.00;;;;;5.16;74.01;102038.81;4907507;28;45291;-59
2021/11/24 08:13:16;;;;;;;;;26.50;19.75;;;;;5.19;73.89;102043.97;4923938;28;45399;-59
2021/11/24 08:15:41;;;;;;;;;23.75;18.75;;;;;5.19;73.91;102048.34;4915641;28;45288;-59
2021/11/24 08:18:07;;;;;;;;;20.50;18.50;;;;;5.19;74.24;102043.13;4923962;28;45581;-58
2021/11/24 08:20:32;;;;;;;;;28.50;22.00;;;;;5.23;73.60;102042.19;4924411;28;45355;-59
2021/11/24 08:22:58;;;;;;;;;23.25;17.50;;;;;5.23;73.90;102042.19;4924153;28;45397;-59
2021/11/24 08:25:23;;;;;;;;;25.75;19.00;;;;;5.26;73.47;102036.91;4923906;28;45322;-59
2021/11/24 08:27:49;;;;;;;;;27.75;20.75;;;;;5.27;73.00;102036.03;4923665;28;45265;-57
2021/11/24 08:30:14;;;;;;;;;20.25;17.50;;;;;5.30;72.80;102041.22;4923975;28;45469;-71
2021/11/24 08:32:40;;;;;;;;;21.50;18.25;;;;;5.30;74.03;102044.69;4904323;28;45586;-69
2021/11/24 08:35:06;;;;;;;;;24.50;16.25;;;;;5.31;73.39;102035.09;4923828;28;46016;-69
2021/11/24 08:37:32;;;;;;;;;18.75;18.00;;;;;5.24;73.23;102028.25;4925165;28;45387;-68
2021/11/24 08:39:57;;;;;;;;;21.75;17.25;;;;;5.18;73.48;102026.59;4924000;28;45388;-69
2021/11/24 08:42:25;;;;;;;;;31.50;18.50;;;;;5.18;73.98;102029.19;4924651;28;45491;-65
2021/11/24 08:44:51;;;;;;;;;25.00;20.50;;;;;5.22;73.54;102035.25;4923836;28;46269;-62
2021/11/24 08:47:18;;;;;;;;;26.50;19.50;;;;;5.25;73.66;102035.19;4922268;28;46061;-62
2021/11/24 08:49:44;;;;;;;;;32.25;23.00;;;;;5.28;73.37;102035.13;4923530;28;45373;-61
2021/11/24 08:52:10;;;;;;;;;21.50;20.00;;;;;5.34;73.90;102027.19;4923613;28;45414;-62
2021/11/24 08:54:37;;;;;;;;;29.00;17.50;;;;;5.43;73.74;102028.78;4922911;28;45400;-62
2021/11/24 08:57:04;;;;;;;;;25.50;17.25;;;;;5.46;73.31;102026.13;4922873;28;45439;-61
2021/11/24 08:59:29;;;;;;;;;26.00;21.50;;;;;5.50;73.43;102023.44;4921810;28;45262;-59
2021/11/24 09:01:56;;;;;;;;;26.75;17.25;;;;;5.58;72.93;102018.94;4923485;28;45267;-59
2021/11/24 09:04:21;;;;;;;;;25.25;19.25;;;;;5.60;73.03;102018.88;4922966;28;46327;-59
2021/11/24 09:06:47;;;;;;;;;18.50;16.50;;;;;5.65;72.68;102013.59;4918702;28;45884;-63
2021/11/24 09:09:13;;;;;;;;;27.25;25.00;;;;;5.71;72.79;102008.25;4923094;28;45256;-62
2021/11/24 09:11:38;;;;;;;;;29.50;24.25;;;;;5.76;72.79;102006.41;4922199;28;45415;-60
2021/11/24 09:14:04;;;;;;;;;20.00;17.75;;;;;5.81;73.21;102002.81;4922935;28;45944;-59
2021/11/24 09:16:29;;;;;;;;;24.75;21.25;;;;;5.84;72.23;102000.13;4923234;28;45376;-59
2021/11/24 09:18:55;;;;;;;;;28.50;18.00;;;;;5.86;72.85;101993.13;4923128;28;45397;-58
2021/11/24 09:21:23;;;;;;;;;25.25;19.00;;;;;5.91;72.15;101997.44;4923035;28;45623;-59
2021/11/24 09:23:50;;;;;;;;;18.50;16.75;;;;;5.93;72.77;101990.44;4922655;28;46784;-59
2021/11/24 09:26:19;;;;;;;;;27.25;21.00;;;;;5.97;72.80;101990.34;4922685;28;45321;-59
2021/11/24 09:28:45;;;;;;;;;24.00;22.00;;;;;5.91;72.60;101982.59;4922895;28;45478;-59
2021/11/24 09:31:11;;;;;;;;;20.25;15.25;;;;;5.89;72.05;101989.59;4922685;28;45387;-59
2021/11/24 09:33:40;;;;;;;;;22.25;20.25;;;;;5.90;72.38;101988.69;4922859;28;46046;-58
2021/11/24 09:36:07;;;;;;;;;28.00;18.75;;;;;5.93;71.96;101979.97;4925724;28;45394;-58
2021/11/24 09:38:32;;;;;;;;;24.50;18.00;;;;;5.92;72.38;101989.56;4922955;28;45315;-58
2021/11/24 09:41:05;;;;;;;;;32.00;26.00;;;;;5.99;72.33;101980.69;4922302;28;45549;-58
2021/11/24 09:43:34;;;;;;;;;27.25;16.50;;;;;6.03;72.46;101969.28;4922771;28;45396;-58
2021/11/24 09:46:01;;;;;;;;;27.25;17.00;;;;;6.07;72.07;101983.16;4922939;28;45343;-58
2021/11/24 09:48:27;;;;;;;;;23.75;17.25;;;;;6.04;71.47;101975.38;4923318;28;45285;-58
2021/11/24 09:50:55;;;;;;;;;31.00;25.50;;;;;6.07;71.51;101970.06;4922922;28;45346;-59
2021/11/24 09:53:22;;;;;;;;;28.00;20.75;;;;;6.13;71.78;101968.19;4922204;28;45258;-58
2021/11/24 09:55:51;;;;;;;;;27.75;22.50;;;;;6.16;71.52;101972.50;4922501;28;45460;-60
2021/11/24 09:58:17;;;;;;;;;21.00;18.25;;;;;6.21;71.71;101969.78;4922665;28;45755;-59
2021/11/24 10:00:43;;;;;;;;;46.67;39.00;;;;;6.23;71.72;101968.84;4922575;28;45578;-59
2021/11/24 10:03:10;;;;;;;;;67.33;55.33;;;;;6.25;72.14;101971.47;4922723;28;45416;-59
2021/11/24 10:05:37;;;;;;;;;29.25;22.50;;;;;6.17;71.13;101963.78;4922657;28;45479;-59
2021/11/24 10:08:05;;;;;;;;;24.75;19.00;;;;;6.12;71.23;101971.72;4930459;28;45219;-59
2021/11/24 10:10:30;;;;;;;;;32.50;26.50;;;;;6.18;71.53;101962.88;4925007;28;45371;-59
2021/11/24 10:12:56;;;;;;;;;77.00;57.00;;;;;6.24;71.41;101954.91;4922468;28;45356;-59
2021/11/24 10:15:47;;;;;;;;;60.00;47.25;;;;;6.31;71.76;101969.53;4927922;28;45470;-58
2021/11/24 10:18:22;;;;;;;;;26.75;19.75;;;;;6.41;71.23;101972.84;4921640;28;45496;-59
2021/11/24 10:20:48;;;;;;;;;30.00;25.50;;;;;6.51;71.12;101963.03;4932592;28;45411;-59
2021/11/24 10:23:35;;;;;;;;;34.25;25.75;;;;;6.57;71.23;101957.66;4933490;28;45774;-56
2021/11/24 10:26:21;;;;;;;;;33.00;27.75;;;;;6.64;70.78;101949.63;4929564;28;45468;-59
2021/11/24 10:28:49;;;;;;;;;37.00;29.50;;;;;6.69;71.24;101942.50;4920030;28;45572;-57
2021/11/24 10:31:36;;;;;;;;;30.00;21.75;;;;;6.70;71.00;101932.88;4927309;28;45374;-57
2021/11/24 10:34:16;;;;;;;;;27.75;17.00;;;;;6.78;70.79;101930.94;4929281;28;45452;-56
2021/11/24 10:37:05;;;;;;;;;28.00;19.00;;;;;6.89;70.66;101923.69;4932613;28;45569;-59
2021/11/24 10:39:40;;;;;;;;;27.75;20.50;;;;;6.91;70.67;101921.03;4929313;28;45327;-58
2021/11/24 10:42:21;;;;;;;;;29.75;22.75;;;;;7.02;70.50;101912.91;4931298;28;45445;-58
2021/11/24 10:44:51;;;;;;;;;24.75;19.25;;;;;7.10;70.32;101913.56;4932104;28;46183;-58
2021/11/24 10:47:17;;;;;;;;;32.75;22.50;;;;;7.19;70.10;101910.72;4925072;28;45380;-57
2021/11/24 10:49:49;;;;;;;;;23.00;22.50;;;;;7.28;69.94;101903.47;4919821;28;45409;-55
2021/11/24 10:52:35;;;;;;;;;25.75;23.50;;;;;7.33;69.64;101900.72;4923663;28;45281;-57
2021/11/24 10:55:18;;;;;;;;;29.00;21.25;;;;;7.27;69.95;101896.50;4929405;28;45470;-56
2021/11/24 10:58:04;;;;;;;;;22.50;21.00;;;;;7.32;70.08;101896.38;4930087;28;45396;-58
2021/11/24 11:00:36;;;;;;;;;24.75;21.50;;;;;7.37;70.09;101891.88;4935235;28;45423;-57
2021/11/24 11:03:02;;;;;;;;;24.25;19.25;;;;;7.41;69.91;101885.63;4931471;28;45439;-55
2021/11/24 11:05:29;;;;;;;;;26.00;21.00;;;;;7.35;69.63;101870.09;4924477;28;45464;-54
2021/11/24 11:07:58;;;;;;;;;18.25;16.50;;;;;7.30;69.51;101871.13;4924961;28;45652;-54
2021/11/24 11:10:30;;;;;;;;;25.75;20.50;;;;;7.32;70.02;101875.41;4924502;28;45451;-60
2021/11/24 11:13:03;;;;;;;;;29.00;23.50;;;;;7.34;69.78;101868.34;4924384;28;45308;-60
2021/11/24 11:15:37;;;;;;;;;33.25;21.50;;;;;7.35;69.88;101859.59;4924841;28;45365;-59